sensor_id;sensor_type;location;lat;lon;timestamp;P1;durP1;ratioP1;P2;durP2;ratioP2
26654;SDS011;14278;50.784;4.630;2022-08-19T00:01:38;7.75;;;5.63;;
26654;SDS011;14278;50.784;4.630;2022-08-19T00:04:07;4.57;;;4.13;;
26654;SDS011;14278;50.784;4.630;2022-08-19T00:06:34;4.97;;;4.57;;
26654;SDS011;14278;50.784;4.630;2022-08-19T00:09:01;7.07;;;4.97;;
26654;SDS011;14278;50.784;4.630;2022-08-19T00:11:28;3.85;;;3.55;;
26654;SDS011;14278;50.784;4.630;2022-08-19T00:13:55;7.28;;;4.70;;
26654;SDS011;14278;50.784;4.630;2022-08-19T00:16:22;4.55;;;4.15;;
26654;SDS011;14278;50.784;4.630;2022-08-19T00:18:49;7.30;;;5.70;;
26654;SDS011;14278;50.784;4.630;2022-08-19T00:21:15;8.77;;;5.05;;
26654;SDS011;14278;50.784;4.630;2022-08-19T00:23:42;5.68;;;4.45;;
26654;SDS011;14278;50.784;4.630;2022-08-19T00:26:09;6.38;;;5.72;;
26654;SDS011;14278;50.784;4.630;2022-08-19T00:28:36;4.35;;;4.03;;
26654;SDS011;14278;50.784;4.630;2022-08-19T00:31:03;5.60;;;5.07;;
26654;SDS011;14278;50.784;4.630;2022-08-19T00:33:31;5.13;;;4.72;;
26654;SDS011;14278;50.784;4.630;2022-08-19T00:35:58;5.32;;;4.82;;
26654;SDS011;14278;50.784;4.630;2022-08-19T00:38:29;5.25;;;4.75;;
26654;SDS011;14278;50.784;4.630;2022-08-19T00:40:56;5.00;;;4.60;;
26654;SDS011;14278;50.784;4.630;2022-08-19T00:43:22;4.78;;;4.38;;
26654;SDS011;14278;50.784;4.630;2022-08-19T00:45:50;6.05;;;4.85;;
26654;SDS011;14278;50.784;4.630;2022-08-19T00:48:16;6.35;;;5.53;;
26654;SDS011;14278;50.784;4.630;2022-08-19T00:50:43;9.82;;;6.30;;
26654;SDS011;14278;50.784;4.630;2022-08-19T00:53:14;6.43;;;5.85;;
26654;SDS011;14278;50.784;4.630;2022-08-19T00:55:47;5.53;;;5.03;;
26654;SDS011;14278;50.784;4.630;2022-08-19T00:58:16;5.88;;;4.90;;
26654;SDS011;14278;50.784;4.630;2022-08-19T01:00:44;4.57;;;4.28;;
26654;SDS011;14278;50.784;4.630;2022-08-19T01:03:11;6.60;;;5.32;;
26654;SDS011;14278;50.784;4.630;2022-08-19T01:05:39;7.10;;;5.68;;
26654;SDS011;14278;50.784;4.630;2022-08-19T01:08:07;7.00;;;5.23;;
26654;SDS011;14278;50.784;4.630;2022-08-19T01:10:37;9.25;;;5.28;;
26654;SDS011;14278;50.784;4.630;2022-08-19T01:13:07;5.43;;;4.93;;
26654;SDS011;14278;50.784;4.630;2022-08-19T01:15:35;5.63;;;5.05;;
26654;SDS011;14278;50.784;4.630;2022-08-19T01:18:08;7.88;;;5.78;;
26654;SDS011;14278;50.784;4.630;2022-08-19T01:20:36;6.97;;;5.63;;
26654;SDS011;14278;50.784;4.630;2022-08-19T01:23:03;5.73;;;5.23;;
26654;SDS011;14278;50.784;4.630;2022-08-19T01:25:31;4.65;;;4.20;;
26654;SDS011;14278;50.784;4.630;2022-08-19T01:28:05;5.63;;;4.25;;
26654;SDS011;14278;50.784;4.630;2022-08-19T01:30:33;4.32;;;3.97;;
26654;SDS011;14278;50.784;4.630;2022-08-19T01:33:00;6.10;;;4.78;;
26654;SDS011;14278;50.784;4.630;2022-08-19T01:35:28;4.97;;;4.47;;
26654;SDS011;14278;50.784;4.630;2022-08-19T01:37:57;5.60;;;4.60;;
26654;SDS011;14278;50.784;4.630;2022-08-19T01:40:26;4.93;;;4.45;;
26654;SDS011;14278;50.784;4.630;2022-08-19T01:42:55;5.68;;;5.05;;
26654;SDS011;14278;50.784;4.630;2022-08-19T01:45:22;7.05;;;5.55;;
26654;SDS011;14278;50.784;4.630;2022-08-19T01:47:50;7.45;;;5.35;;
26654;SDS011;14278;50.784;4.630;2022-08-19T01:50:17;5.60;;;5.05;;
26654;SDS011;14278;50.784;4.630;2022-08-19T01:52:43;7.70;;;5.40;;
26654;SDS011;14278;50.784;4.630;2022-08-19T01:55:14;5.43;;;4.57;;
26654;SDS011;14278;50.784;4.630;2022-08-19T01:57:43;6.40;;;5.57;;
26654;SDS011;14278;50.784;4.630;2022-08-19T02:00:13;5.28;;;4.65;;
26654;SDS011;14278;50.784;4.630;2022-08-19T02:02:41;4.15;;;3.85;;
26654;SDS011;14278;50.784;4.630;2022-08-19T02:05:07;8.60;;;6.22;;
26654;SDS011;14278;50.784;4.630;2022-08-19T02:07:34;8.27;;;5.68;;
26654;SDS011;14278;50.784;4.630;2022-08-19T02:10:02;7.75;;;5.85;;
26654;SDS011;14278;50.784;4.630;2022-08-19T02:12:29;7.70;;;6.77;;
26654;SDS011;14278;50.784;4.630;2022-08-19T02:14:54;7.15;;;6.05;;
26654;SDS011;14278;50.784;4.630;2022-08-19T02:17:20;7.20;;;6.27;;
26654;SDS011;14278;50.784;4.630;2022-08-19T02:19:46;8.02;;;7.22;;
26654;SDS011;14278;50.784;4.630;2022-08-19T02:22:13;9.63;;;7.22;;
26654;SDS011;14278;50.784;4.630;2022-08-19T02:24:39;7.93;;;7.13;;
26654;SDS011;14278;50.784;4.630;2022-08-19T02:27:05;9.80;;;6.20;;
26654;SDS011;14278;50.784;4.630;2022-08-19T02:29:31;13.05;;;7.25;;
26654;SDS011;14278;50.784;4.630;2022-08-19T02:31:58;7.90;;;6.40;;
26654;SDS011;14278;50.784;4.630;2022-08-19T02:34:23;5.68;;;4.75;;
26654;SDS011;14278;50.784;4.630;2022-08-19T02:36:50;6.00;;;5.50;;
26654;SDS011;14278;50.784;4.630;2022-08-19T02:39:17;7.28;;;6.47;;
26654;SDS011;14278;50.784;4.630;2022-08-19T02:41:43;7.27;;;6.47;;
26654;SDS011;14278;50.784;4.630;2022-08-19T02:44:10;7.50;;;6.22;;
26654;SDS011;14278;50.784;4.630;2022-08-19T02:46:35;8.87;;;7.30;;
26654;SDS011;14278;50.784;4.630;2022-08-19T02:49:05;13.10;;;9.20;;
26654;SDS011;14278;50.784;4.630;2022-08-19T02:51:35;12.93;;;8.30;;
26654;SDS011;14278;50.784;4.630;2022-08-19T02:54:04;9.07;;;7.10;;
26654;SDS011;14278;50.784;4.630;2022-08-19T02:56:32;9.10;;;7.65;;
26654;SDS011;14278;50.784;4.630;2022-08-19T02:59:00;8.73;;;7.87;;
26654;SDS011;14278;50.784;4.630;2022-08-19T03:01:27;10.43;;;8.53;;
26654;SDS011;14278;50.784;4.630;2022-08-19T03:03:55;10.30;;;8.23;;
26654;SDS011;14278;50.784;4.630;2022-08-19T03:06:21;8.57;;;7.40;;
26654;SDS011;14278;50.784;4.630;2022-08-19T03:08:48;10.97;;;8.57;;
26654;SDS011;14278;50.784;4.630;2022-08-19T03:11:20;8.27;;;7.20;;
26654;SDS011;14278;50.784;4.630;2022-08-19T03:13:54;7.90;;;6.93;;
26654;SDS011;14278;50.784;4.630;2022-08-19T03:16:21;11.23;;;8.43;;
26654;SDS011;14278;50.784;4.630;2022-08-19T03:18:50;8.97;;;8.07;;
26654;SDS011;14278;50.784;4.630;2022-08-19T03:21:17;11.43;;;9.47;;
26654;SDS011;14278;50.784;4.630;2022-08-19T03:23:53;11.37;;;9.17;;
26654;SDS011;14278;50.784;4.630;2022-08-19T03:26:20;12.33;;;8.53;;
26654;SDS011;14278;50.784;4.630;2022-08-19T03:28:46;11.77;;;9.43;;
26654;SDS011;14278;50.784;4.630;2022-08-19T03:31:16;12.93;;;9.67;;
26654;SDS011;14278;50.784;4.630;2022-08-19T03:33:45;13.80;;;9.60;;
26654;SDS011;14278;50.784;4.630;2022-08-19T03:36:12;20.43;;;8.67;;
26654;SDS011;14278;50.784;4.630;2022-08-19T03:38:42;9.90;;;8.87;;
26654;SDS011;14278;50.784;4.630;2022-08-19T03:41:20;10.57;;;8.63;;
26654;SDS011;14278;50.784;4.630;2022-08-19T03:43:48;11.73;;;8.70;;
26654;SDS011;14278;50.784;4.630;2022-08-19T03:46:18;14.67;;;9.23;;
26654;SDS011;14278;50.784;4.630;2022-08-19T03:48:46;9.83;;;8.37;;
26654;SDS011;14278;50.784;4.630;2022-08-19T03:51:17;11.70;;;8.50;;
26654;SDS011;14278;50.784;4.630;2022-08-19T03:53:48;13.00;;;9.70;;
26654;SDS011;14278;50.784;4.630;2022-08-19T03:56:14;13.53;;;9.80;;
26654;SDS011;14278;50.784;4.630;2022-08-19T03:58:41;18.20;;;10.83;;
26654;SDS011;14278;50.784;4.630;2022-08-19T04:01:07;9.07;;;8.20;;
26654;SDS011;14278;50.784;4.630;2022-08-19T04:03:36;11.13;;;8.80;;
26654;SDS011;14278;50.784;4.630;2022-08-19T04:06:11;10.70;;;8.70;;
26654;SDS011;14278;50.784;4.630;2022-08-19T04:08:41;13.13;;;10.03;;
26654;SDS011;14278;50.784;4.630;2022-08-19T04:11:09;14.00;;;9.17;;
26654;SDS011;14278;50.784;4.630;2022-08-19T04:13:36;9.53;;;8.20;;
26654;SDS011;14278;50.784;4.630;2022-08-19T04:16:03;11.87;;;8.43;;
26654;SDS011;14278;50.784;4.630;2022-08-19T04:18:30;9.80;;;8.20;;
26654;SDS011;14278;50.784;4.630;2022-08-19T04:20:57;11.30;;;8.77;;
26654;SDS011;14278;50.784;4.630;2022-08-19T04:23:24;9.63;;;8.40;;
26654;SDS011;14278;50.784;4.630;2022-08-19T04:25:50;12.60;;;9.40;;
26654;SDS011;14278;50.784;4.630;2022-08-19T04:28:15;10.70;;;8.27;;
26654;SDS011;14278;50.784;4.630;2022-08-19T04:30:44;10.43;;;8.20;;
26654;SDS011;14278;50.784;4.630;2022-08-19T04:33:13;8.97;;;7.00;;
26654;SDS011;14278;50.784;4.630;2022-08-19T04:35:42;9.13;;;7.87;;
26654;SDS011;14278;50.784;4.630;2022-08-19T04:38:13;11.27;;;8.73;;
26654;SDS011;14278;50.784;4.630;2022-08-19T04:40:41;12.50;;;8.00;;
26654;SDS011;14278;50.784;4.630;2022-08-19T04:43:27;9.53;;;7.73;;
26654;SDS011;14278;50.784;4.630;2022-08-19T04:45:53;11.23;;;8.63;;
26654;SDS011;14278;50.784;4.630;2022-08-19T04:48:20;8.90;;;7.83;;
26654;SDS011;14278;50.784;4.630;2022-08-19T04:50:51;13.07;;;9.27;;
26654;SDS011;14278;50.784;4.630;2022-08-19T04:53:23;9.87;;;8.37;;
26654;SDS011;14278;50.784;4.630;2022-08-19T04:55:53;12.37;;;8.33;;
26654;SDS011;14278;50.784;4.630;2022-08-19T04:58:23;14.93;;;9.63;;
26654;SDS011;14278;50.784;4.630;2022-08-19T05:00:51;10.80;;;8.77;;
26654;SDS011;14278;50.784;4.630;2022-08-19T05:03:18;16.30;;;12.33;;
26654;SDS011;14278;50.784;4.630;2022-08-19T05:05:44;26.67;;;19.93;;
26654;SDS011;14278;50.784;4.630;2022-08-19T05:08:13;16.67;;;12.47;;
26654;SDS011;14278;50.784;4.630;2022-08-19T05:10:45;19.40;;;17.37;;
26654;SDS011;14278;50.784;4.630;2022-08-19T05:13:14;11.60;;;9.33;;
26654;SDS011;14278;50.784;4.630;2022-08-19T05:15:41;12.37;;;8.43;;
26654;SDS011;14278;50.784;4.630;2022-08-19T05:18:07;13.13;;;9.07;;
26654;SDS011;14278;50.784;4.630;2022-08-19T05:20:51;11.87;;;9.27;;
26654;SDS011;14278;50.784;4.630;2022-08-19T05:23:36;13.13;;;9.57;;
26654;SDS011;14278;50.784;4.630;2022-08-19T05:26:02;11.70;;;8.67;;
26654;SDS011;14278;50.784;4.630;2022-08-19T05:28:27;14.27;;;9.83;;
26654;SDS011;14278;50.784;4.630;2022-08-19T05:30:53;12.37;;;8.40;;
26654;SDS011;14278;50.784;4.630;2022-08-19T05:33:20;15.73;;;11.27;;
26654;SDS011;14278;50.784;4.630;2022-08-19T05:35:47;21.43;;;9.50;;
26654;SDS011;14278;50.784;4.630;2022-08-19T05:38:15;13.27;;;10.80;;
26654;SDS011;14278;50.784;4.630;2022-08-19T05:40:41;11.70;;;9.60;;
26654;SDS011;14278;50.784;4.630;2022-08-19T05:43:11;13.17;;;10.17;;
26654;SDS011;14278;50.784;4.630;2022-08-19T05:45:38;9.70;;;8.57;;
26654;SDS011;14278;50.784;4.630;2022-08-19T05:48:05;11.03;;;9.90;;
26654;SDS011;14278;50.784;4.630;2022-08-19T05:50:31;15.43;;;10.00;;
26654;SDS011;14278;50.784;4.630;2022-08-19T05:52:57;11.37;;;8.80;;
26654;SDS011;14278;50.784;4.630;2022-08-19T05:55:22;13.63;;;10.07;;
26654;SDS011;14278;50.784;4.630;2022-08-19T05:57:48;10.60;;;8.97;;
26654;SDS011;14278;50.784;4.630;2022-08-19T06:00:14;13.47;;;9.37;;
26654;SDS011;14278;50.784;4.630;2022-08-19T06:02:41;13.10;;;9.63;;
26654;SDS011;14278;50.784;4.630;2022-08-19T06:05:07;15.77;;;9.63;;
26654;SDS011;14278;50.784;4.630;2022-08-19T06:07:34;7.90;;;6.97;;
26654;SDS011;14278;50.784;4.630;2022-08-19T06:10:01;11.05;;;8.52;;
26654;SDS011;14278;50.784;4.630;2022-08-19T06:12:29;10.20;;;8.13;;
26654;SDS011;14278;50.784;4.630;2022-08-19T06:15:00;11.53;;;7.93;;
26654;SDS011;14278;50.784;4.630;2022-08-19T06:17:31;10.57;;;7.97;;
26654;SDS011;14278;50.784;4.630;2022-08-19T06:31:08;5.67;;;4.53;;
26654;SDS011;14278;50.784;4.630;2022-08-19T06:33:34;8.48;;;5.05;;
26654;SDS011;14278;50.784;4.630;2022-08-19T06:36:01;5.27;;;4.50;;
26654;SDS011;14278;50.784;4.630;2022-08-19T06:38:27;3.95;;;3.60;;
26654;SDS011;14278;50.784;4.630;2022-08-19T06:41:03;3.58;;;3.28;;
26654;SDS011;14278;50.784;4.630;2022-08-19T06:43:29;4.82;;;4.32;;
26654;SDS011;14278;50.784;4.630;2022-08-19T06:45:55;6.15;;;4.13;;
26654;SDS011;14278;50.784;4.630;2022-08-19T06:48:21;4.90;;;3.83;;
26654;SDS011;14278;50.784;4.630;2022-08-19T06:50:47;8.32;;;3.42;;
26654;SDS011;14278;50.784;4.630;2022-08-19T06:53:15;4.25;;;3.50;;
26654;SDS011;14278;50.784;4.630;2022-08-19T06:55:40;4.22;;;2.50;;
26654;SDS011;14278;50.784;4.630;2022-08-19T06:58:06;3.63;;;3.33;;
26654;SDS011;14278;50.784;4.630;2022-08-19T07:00:32;3.17;;;2.80;;
26654;SDS011;14278;50.784;4.630;2022-08-19T07:02:58;4.20;;;3.45;;
26654;SDS011;14278;50.784;4.630;2022-08-19T07:05:25;2.67;;;2.47;;
26654;SDS011;14278;50.784;4.630;2022-08-19T07:07:51;2.97;;;2.67;;
26654;SDS011;14278;50.784;4.630;2022-08-19T07:10:17;2.83;;;2.35;;
26654;SDS011;14278;50.784;4.630;2022-08-19T07:12:43;6.13;;;2.50;;
26654;SDS011;14278;50.784;4.630;2022-08-19T07:20:20;2.53;;;2.22;;
26654;SDS011;14278;50.784;4.630;2022-08-19T07:22:45;2.40;;;2.20;;
26654;SDS011;14278;50.784;4.630;2022-08-19T07:25:12;3.83;;;2.35;;
26654;SDS011;14278;50.784;4.630;2022-08-19T07:27:38;10.95;;;2.55;;
26654;SDS011;14278;50.784;4.630;2022-08-19T07:30:04;3.30;;;2.58;;
26654;SDS011;14278;50.784;4.630;2022-08-19T07:32:32;6.18;;;2.13;;
26654;SDS011;14278;50.784;4.630;2022-08-19T07:34:57;2.35;;;2.15;;
26654;SDS011;14278;50.784;4.630;2022-08-19T07:37:25;2.65;;;2.22;;
26654;SDS011;14278;50.784;4.630;2022-08-19T07:39:53;8.02;;;3.35;;
26654;SDS011;14278;50.784;4.630;2022-08-19T07:42:19;2.22;;;2.10;;
26654;SDS011;14278;50.784;4.630;2022-08-19T07:44:46;2.28;;;1.77;;
26654;SDS011;14278;50.784;4.630;2022-08-19T07:47:12;4.95;;;2.67;;
26654;SDS011;14278;50.784;4.630;2022-08-19T07:49:40;3.83;;;2.70;;
26654;SDS011;14278;50.784;4.630;2022-08-19T07:52:07;3.63;;;2.70;;
26654;SDS011;14278;50.784;4.630;2022-08-19T07:54:35;2.70;;;2.17;;
26654;SDS011;14278;50.784;4.630;2022-08-19T07:57:03;2.10;;;1.98;;
26654;SDS011;14278;50.784;4.630;2022-08-19T07:59:30;3.00;;;2.38;;
26654;SDS011;14278;50.784;4.630;2022-08-19T08:01:56;2.13;;;1.92;;
26654;SDS011;14278;50.784;4.630;2022-08-19T08:04:25;4.55;;;2.72;;
26654;SDS011;14278;50.784;4.630;2022-08-19T08:07:11;4.13;;;1.88;;
26654;SDS011;14278;50.784;4.630;2022-08-19T08:09:55;4.03;;;2.50;;
26654;SDS011;14278;50.784;4.630;2022-08-19T08:12:22;4.85;;;2.85;;
26654;SDS011;14278;50.784;4.630;2022-08-19T08:14:54;2.45;;;2.03;;
26654;SDS011;14278;50.784;4.630;2022-08-19T08:17:23;3.17;;;1.88;;
26654;SDS011;14278;50.784;4.630;2022-08-19T08:19:51;1.83;;;1.73;;
26654;SDS011;14278;50.784;4.630;2022-08-19T08:22:20;3.17;;;2.28;;
26654;SDS011;14278;50.784;4.630;2022-08-19T09:06:44;2.03;;;1.88;;
26654;SDS011;14278;50.784;4.630;2022-08-19T09:17:28;2.05;;;1.85;;
26654;SDS011;14278;50.784;4.630;2022-08-19T09:22:48;1.73;;;1.63;;
26654;SDS011;14278;50.784;4.630;2022-08-19T09:25:17;1.55;;;1.45;;
26654;SDS011;14278;50.784;4.630;2022-08-19T09:27:47;1.65;;;1.25;;
26654;SDS011;14278;50.784;4.630;2022-08-19T09:30:15;1.23;;;1.13;;
26654;SDS011;14278;50.784;4.630;2022-08-19T09:32:44;2.38;;;1.00;;
26654;SDS011;14278;50.784;4.630;2022-08-19T09:35:11;1.05;;;1.05;;
26654;SDS011;14278;50.784;4.630;2022-08-19T09:37:38;1.17;;;1.13;;
26654;SDS011;14278;50.784;4.630;2022-08-19T09:40:04;1.10;;;1.00;;
26654;SDS011;14278;50.784;4.630;2022-08-19T09:42:31;2.20;;;0.90;;
26654;SDS011;14278;50.784;4.630;2022-08-19T09:44:58;1.35;;;1.27;;
26654;SDS011;14278;50.784;4.630;2022-08-19T09:47:25;1.42;;;1.20;;
26654;SDS011;14278;50.784;4.630;2022-08-19T09:49:51;1.58;;;1.10;;
26654;SDS011;14278;50.784;4.630;2022-08-19T09:52:16;1.60;;;1.50;;
26654;SDS011;14278;50.784;4.630;2022-08-19T09:54:44;2.20;;;1.73;;
26654;SDS011;14278;50.784;4.630;2022-08-19T09:57:10;2.72;;;1.95;;
26654;SDS011;14278;50.784;4.630;2022-08-19T09:59:36;1.70;;;1.60;;
26654;SDS011;14278;50.784;4.630;2022-08-19T10:02:04;0.90;;;0.90;;
26654;SDS011;14278;50.784;4.630;2022-08-19T10:04:29;2.42;;;1.60;;
26654;SDS011;14278;50.784;4.630;2022-08-19T10:07:14;1.38;;;1.27;;
26654;SDS011;14278;50.784;4.630;2022-08-19T10:09:40;1.70;;;1.60;;
26654;SDS011;14278;50.784;4.630;2022-08-19T10:12:07;1.70;;;1.60;;
26654;SDS011;14278;50.784;4.630;2022-08-19T10:14:33;1.80;;;1.65;;
26654;SDS011;14278;50.784;4.630;2022-08-19T10:16:59;2.28;;;2.08;;
26654;SDS011;14278;50.784;4.630;2022-08-19T10:19:27;1.98;;;1.42;;
26654;SDS011;14278;50.784;4.630;2022-08-19T10:21:57;1.33;;;1.23;;
26654;SDS011;14278;50.784;4.630;2022-08-19T10:24:23;1.45;;;1.30;;
26654;SDS011;14278;50.784;4.630;2022-08-19T10:26:50;1.52;;;1.42;;
26654;SDS011;14278;50.784;4.630;2022-08-19T10:29:16;1.73;;;1.55;;
26654;SDS011;14278;50.784;4.630;2022-08-19T10:31:42;1.02;;;1.02;;
26654;SDS011;14278;50.784;4.630;2022-08-19T10:34:08;1.45;;;1.33;;
26654;SDS011;14278;50.784;4.630;2022-08-19T10:36:35;0.80;;;0.80;;
26654;SDS011;14278;50.784;4.630;2022-08-19T10:39:06;0.93;;;0.93;;
26654;SDS011;14278;50.784;4.630;2022-08-19T10:41:35;0.88;;;0.88;;
26654;SDS011;14278;50.784;4.630;2022-08-19T10:44:03;0.95;;;0.95;;
26654;SDS011;14278;50.784;4.630;2022-08-19T10:46:35;1.08;;;0.98;;
26654;SDS011;14278;50.784;4.630;2022-08-19T10:49:07;1.60;;;1.33;;
26654;SDS011;14278;50.784;4.630;2022-08-19T10:51:36;1.20;;;1.08;;
26654;SDS011;14278;50.784;4.630;2022-08-19T10:54:21;1.02;;;0.95;;
26654;SDS011;14278;50.784;4.630;2022-08-19T10:56:47;1.55;;;1.35;;
26654;SDS011;14278;50.784;4.630;2022-08-19T10:59:17;1.80;;;1.42;;
26654;SDS011;14278;50.784;4.630;2022-08-19T11:01:45;1.98;;;1.17;;
26654;SDS011;14278;50.784;4.630;2022-08-19T11:04:12;2.13;;;1.38;;
26654;SDS011;14278;50.784;4.630;2022-08-19T11:06:41;1.50;;;1.40;;
26654;SDS011;14278;50.784;4.630;2022-08-19T11:09:10;1.33;;;1.23;;
26654;SDS011;14278;50.784;4.630;2022-08-19T11:11:37;1.92;;;1.42;;
26654;SDS011;14278;50.784;4.630;2022-08-19T11:14:07;1.52;;;1.42;;
26654;SDS011;14278;50.784;4.630;2022-08-19T11:16:34;1.23;;;1.23;;
26654;SDS011;14278;50.784;4.630;2022-08-19T11:19:03;1.88;;;1.50;;
26654;SDS011;14278;50.784;4.630;2022-08-19T11:21:33;2.78;;;1.33;;
26654;SDS011;14278;50.784;4.630;2022-08-19T11:24:02;1.00;;;1.00;;
26654;SDS011;14278;50.784;4.630;2022-08-19T11:26:31;0.98;;;0.95;;
26654;SDS011;14278;50.784;4.630;2022-08-19T11:28:58;1.60;;;1.35;;
26654;SDS011;14278;50.784;4.630;2022-08-19T11:31:27;1.45;;;1.35;;
26654;SDS011;14278;50.784;4.630;2022-08-19T11:33:57;1.60;;;1.40;;
26654;SDS011;14278;50.784;4.630;2022-08-19T11:36:25;2.00;;;1.80;;
26654;SDS011;14278;50.784;4.630;2022-08-19T11:38:51;1.67;;;1.58;;
26654;SDS011;14278;50.784;4.630;2022-08-19T11:41:18;2.03;;;1.58;;
26654;SDS011;14278;50.784;4.630;2022-08-19T11:43:45;2.15;;;1.85;;
26654;SDS011;14278;50.784;4.630;2022-08-19T11:46:12;3.80;;;2.03;;
26654;SDS011;14278;50.784;4.630;2022-08-19T11:48:40;2.67;;;2.22;;
26654;SDS011;14278;50.784;4.630;2022-08-19T11:51:07;2.45;;;2.10;;
26654;SDS011;14278;50.784;4.630;2022-08-19T11:53:36;2.25;;;1.92;;
26654;SDS011;14278;50.784;4.630;2022-08-19T11:56:02;2.20;;;1.95;;
26654;SDS011;14278;50.784;4.630;2022-08-19T11:58:29;2.08;;;1.83;;
26654;SDS011;14278;50.784;4.630;2022-08-19T12:00:56;2.25;;;2.05;;
26654;SDS011;14278;50.784;4.630;2022-08-19T12:03:22;3.05;;;1.65;;
26654;SDS011;14278;50.784;4.630;2022-08-19T12:05:48;1.65;;;1.55;;
26654;SDS011;14278;50.784;4.630;2022-08-19T12:08:15;2.15;;;1.88;;
26654;SDS011;14278;50.784;4.630;2022-08-19T12:10:41;2.22;;;1.73;;
26654;SDS011;14278;50.784;4.630;2022-08-19T12:13:08;2.28;;;2.05;;
26654;SDS011;14278;50.784;4.630;2022-08-19T12:15:35;2.50;;;2.28;;
26654;SDS011;14278;50.784;4.630;2022-08-19T12:18:02;1.92;;;1.75;;
26654;SDS011;14278;50.784;4.630;2022-08-19T12:20:29;2.28;;;2.08;;
26654;SDS011;14278;50.784;4.630;2022-08-19T12:22:55;2.60;;;1.35;;
26654;SDS011;14278;50.784;4.630;2022-08-19T12:25:21;2.13;;;1.70;;
26654;SDS011;14278;50.784;4.630;2022-08-19T12:27:47;1.88;;;1.42;;
26654;SDS011;14278;50.784;4.630;2022-08-19T12:30:14;1.88;;;1.77;;
26654;SDS011;14278;50.784;4.630;2022-08-19T12:32:40;1.77;;;1.67;;
26654;SDS011;14278;50.784;4.630;2022-08-19T12:35:06;1.25;;;1.15;;
26654;SDS011;14278;50.784;4.630;2022-08-19T12:37:33;2.25;;;1.98;;
26654;SDS011;14278;50.784;4.630;2022-08-19T12:39:59;1.40;;;1.30;;
26654;SDS011;14278;50.784;4.630;2022-08-19T12:42:25;1.95;;;1.65;;
26654;SDS011;14278;50.784;4.630;2022-08-19T12:44:50;1.27;;;1.20;;
26654;SDS011;14278;50.784;4.630;2022-08-19T12:47:17;1.23;;;1.13;;
26654;SDS011;14278;50.784;4.630;2022-08-19T12:49:43;1.35;;;1.25;;
26654;SDS011;14278;50.784;4.630;2022-08-19T12:52:11;1.92;;;1.58;;
26654;SDS011;14278;50.784;4.630;2022-08-19T12:54:40;1.20;;;1.10;;
26654;SDS011;14278;50.784;4.630;2022-08-19T12:57:07;2.35;;;1.55;;
26654;SDS011;14278;50.784;4.630;2022-08-19T12:59:35;1.60;;;1.50;;
26654;SDS011;14278;50.784;4.630;2022-08-19T13:02:03;1.25;;;1.20;;
26654;SDS011;14278;50.784;4.630;2022-08-19T13:04:31;1.50;;;1.40;;
26654;SDS011;14278;50.784;4.630;2022-08-19T13:06:58;1.60;;;1.50;;
26654;SDS011;14278;50.784;4.630;2022-08-19T13:09:23;0.90;;;0.90;;
26654;SDS011;14278;50.784;4.630;2022-08-19T13:11:49;1.00;;;1.00;;
26654;SDS011;14278;50.784;4.630;2022-08-19T13:14:15;1.75;;;1.35;;
26654;SDS011;14278;50.784;4.630;2022-08-19T13:16:41;1.63;;;1.52;;
26654;SDS011;14278;50.784;4.630;2022-08-19T13:19:07;0.80;;;0.80;;
26654;SDS011;14278;50.784;4.630;2022-08-19T13:21:33;0.63;;;0.63;;
26654;SDS011;14278;50.784;4.630;2022-08-19T13:23:59;1.08;;;0.98;;
26654;SDS011;14278;50.784;4.630;2022-08-19T13:26:25;0.80;;;0.80;;
26654;SDS011;14278;50.784;4.630;2022-08-19T13:28:51;1.00;;;0.93;;
26654;SDS011;14278;50.784;4.630;2022-08-19T13:31:36;0.75;;;0.75;;
26654;SDS011;14278;50.784;4.630;2022-08-19T13:34:28;2.85;;;1.75;;
26654;SDS011;14278;50.784;4.630;2022-08-19T13:37:00;0.98;;;0.90;;
26654;SDS011;14278;50.784;4.630;2022-08-19T13:39:31;1.45;;;1.10;;
26654;SDS011;14278;50.784;4.630;2022-08-19T13:41:57;0.88;;;0.88;;
26654;SDS011;14278;50.784;4.630;2022-08-19T13:44:24;1.50;;;1.40;;
26654;SDS011;14278;50.784;4.630;2022-08-19T13:46:51;1.30;;;1.20;;
26654;SDS011;14278;50.784;4.630;2022-08-19T13:49:18;1.35;;;1.30;;
26654;SDS011;14278;50.784;4.630;2022-08-19T13:51:46;0.70;;;0.70;;
26654;SDS011;14278;50.784;4.630;2022-08-19T13:54:12;1.40;;;1.30;;
26654;SDS011;14278;50.784;4.630;2022-08-19T13:56:41;0.88;;;0.88;;
26654;SDS011;14278;50.784;4.630;2022-08-19T13:59:08;1.05;;;0.95;;
26654;SDS011;14278;50.784;4.630;2022-08-19T14:01:35;1.30;;;1.20;;
26654;SDS011;14278;50.784;4.630;2022-08-19T14:04:05;1.05;;;0.98;;
26654;SDS011;14278;50.784;4.630;2022-08-19T14:06:31;0.82;;;0.82;;
26654;SDS011;14278;50.784;4.630;2022-08-19T14:08:57;1.00;;;1.00;;
26654;SDS011;14278;50.784;4.630;2022-08-19T14:11:23;2.90;;;1.15;;
26654;SDS011;14278;50.784;4.630;2022-08-19T14:13:49;0.50;;;0.50;;
26654;SDS011;14278;50.784;4.630;2022-08-19T14:16:16;0.85;;;0.82;;
26654;SDS011;14278;50.784;4.630;2022-08-19T14:18:42;0.88;;;0.88;;
26654;SDS011;14278;50.784;4.630;2022-08-19T14:21:13;1.08;;;0.88;;
26654;SDS011;14278;50.784;4.630;2022-08-19T14:23:42;1.17;;;0.77;;
26654;SDS011;14278;50.784;4.630;2022-08-19T14:26:09;0.70;;;0.70;;
26654;SDS011;14278;50.784;4.630;2022-08-19T14:28:37;0.70;;;0.70;;
26654;SDS011;14278;50.784;4.630;2022-08-19T14:31:05;0.50;;;0.50;;
26654;SDS011;14278;50.784;4.630;2022-08-19T14:33:31;0.60;;;0.60;;
26654;SDS011;14278;50.784;4.630;2022-08-19T14:35:57;0.80;;;0.80;;
26654;SDS011;14278;50.784;4.630;2022-08-19T14:38:25;0.65;;;0.65;;
26654;SDS011;14278;50.784;4.630;2022-08-19T14:40:52;0.50;;;0.50;;
26654;SDS011;14278;50.784;4.630;2022-08-19T14:43:18;0.50;;;0.50;;
26654;SDS011;14278;50.784;4.630;2022-08-19T14:45:43;0.30;;;0.30;;
26654;SDS011;14278;50.784;4.630;2022-08-19T14:48:09;0.52;;;0.40;;
26654;SDS011;14278;50.784;4.630;2022-08-19T14:50:36;0.50;;;0.50;;
26654;SDS011;14278;50.784;4.630;2022-08-19T14:53:06;0.70;;;0.70;;
26654;SDS011;14278;50.784;4.630;2022-08-19T14:55:33;2.47;;;0.65;;
26654;SDS011;14278;50.784;4.630;2022-08-19T14:57:59;0.75;;;0.47;;
26654;SDS011;14278;50.784;4.630;2022-08-19T15:00:25;0.50;;;0.50;;
26654;SDS011;14278;50.784;4.630;2022-08-19T15:02:52;0.60;;;0.60;;
26654;SDS011;14278;50.784;4.630;2022-08-19T15:05:19;1.05;;;0.95;;
26654;SDS011;14278;50.784;4.630;2022-08-19T15:07:46;0.80;;;0.60;;
26654;SDS011;14278;50.784;4.630;2022-08-19T15:10:13;0.43;;;0.32;;
26654;SDS011;14278;50.784;4.630;2022-08-19T15:12:39;3.50;;;0.50;;
26654;SDS011;14278;50.784;4.630;2022-08-19T15:15:08;0.30;;;0.30;;
26654;SDS011;14278;50.784;4.630;2022-08-19T15:17:38;0.10;;;0.10;;
26654;SDS011;14278;50.784;4.630;2022-08-19T15:20:05;0.22;;;0.22;;
26654;SDS011;14278;50.784;4.630;2022-08-19T15:22:32;0.20;;;0.20;;
26654;SDS011;14278;50.784;4.630;2022-08-19T15:24:59;0.30;;;0.30;;
26654;SDS011;14278;50.784;4.630;2022-08-19T15:27:26;0.30;;;0.30;;
26654;SDS011;14278;50.784;4.630;2022-08-19T15:29:52;0.17;;;0.17;;
26654;SDS011;14278;50.784;4.630;2022-08-19T15:32:18;0.40;;;0.40;;
26654;SDS011;14278;50.784;4.630;2022-08-19T15:34:43;0.30;;;0.30;;
26654;SDS011;14278;50.784;4.630;2022-08-19T15:37:10;0.20;;;0.20;;
26654;SDS011;14278;50.784;4.630;2022-08-19T15:39:36;0.10;;;0.10;;
26654;SDS011;14278;50.784;4.630;2022-08-19T15:42:02;0.45;;;0.40;;
26654;SDS011;14278;50.784;4.630;2022-08-19T15:44:28;0.38;;;0.38;;
26654;SDS011;14278;50.784;4.630;2022-08-19T15:46:54;0.30;;;0.30;;
26654;SDS011;14278;50.784;4.630;2022-08-19T15:49:20;0.20;;;0.20;;
26654;SDS011;14278;50.784;4.630;2022-08-19T15:51:47;0.38;;;0.38;;
26654;SDS011;14278;50.784;4.630;2022-08-19T15:54:15;0.40;;;0.40;;
26654;SDS011;14278;50.784;4.630;2022-08-19T15:56:45;0.40;;;0.40;;
26654;SDS011;14278;50.784;4.630;2022-08-19T15:59:30;0.50;;;0.50;;